Time;durP1;ratioP1;P1;durP2;ratioP2;P2;SDS_P1;SDS_P2;PMS_P1;PMS_P2;Temp;Humidity;BMP_temperature;BMP_pressure;BME280_temperature;BME280_humidity;BME280_pressure;Samples;Min_cycle;Max_cycle;Signal;HPM_P1;HPM_P2
2023/08/12 00:00:14;;;;;;;3.40;2.70;;;;;;;15.33;82.65;99272.38;105934;1251;73559;-23
2023/08/12 00:02:43;;;;;;;3.80;2.80;;;;;;;15.10;83.87;99275.49;105845;1251;74317;-23
2023/08/12 00:05:11;;;;;;;4.70;3.40;;;;;;;14.89;84.88;99276.41;105964;1251;72586;-23
2023/08/12 00:07:41;;;;;;;3.40;2.10;;;;;;;14.73;86.18;99277.99;105785;1251;61837;-23
2023/08/12 00:10:09;;;;;;;3.40;2.20;;;;;;;15.10;85.52;99271.60;105567;1251;61153;-23
2023/08/12 00:12:37;;;;;;;3.20;2.40;;;;;;;15.39;83.46;99271.67;105656;1259;73846;-23
2023/08/12 00:15:06;;;;;;;4.70;3.20;;;;;;;15.29;83.66;99272.42;105658;1251;73411;-23
2023/08/12 00:17:34;;;;;;;5.50;2.80;;;;;;;15.08;84.79;99275.67;105684;1259;71690;-23
2023/08/12 00:20:05;;;;;;;4.00;3.00;;;;;;;14.87;85.50;99277.13;105796;1253;61081;-23
2023/08/12 00:22:32;;;;;;;4.80;2.80;;;;;;;14.69;86.37;99277.66;105773;1257;61126;-23
2023/08/12 00:25:00;;;;;;;4.60;2.20;;;;;;;15.02;85.86;99278.39;105720;1251;72831;-23
2023/08/12 00:27:26;;;;;;;5.80;2.20;;;;;;;15.33;83.80;99275.38;105674;1259;74559;-23
2023/08/12 00:29:53;;;;;;;2.80;2.50;;;;;;;15.21;83.89;99275.14;105822;1251;72660;-23
2023/08/12 00:32:20;;;;;;;2.80;2.40;;;;;;;15.02;84.40;99274.70;105848;1251;61163;-23
2023/08/12 00:34:47;;;;;;;4.20;3.40;;;;;;;14.74;85.83;99277.67;105778;1256;61133;-23
2023/08/12 00:37:15;;;;;;;2.50;2.00;;;;;;;14.50;87.33;99275.41;105762;1251;73660;-23
2023/08/12 00:39:42;;;;;;;2.60;2.00;;;;;;;14.86;86.96;99272.20;105897;1251;73392;-23
2023/08/12 00:42:09;;;;;;;3.10;2.30;;;;;;;15.17;85.13;99272.52;105851;1254;72704;-23
2023/08/12 00:44:36;;;;;;;5.20;2.80;;;;;;;15.08;84.65;99269.41;105940;1251;61073;-23
2023/08/12 00:47:03;;;;;;;3.40;2.80;;;;;;;14.84;85.61;99270.81;105920;1255;61164;-24
2023/08/12 00:49:31;;;;;;;3.80;3.10;;;;;;;14.63;86.25;99274.86;105582;1254;73872;-23
2023/08/12 00:51:58;;;;;;;2.60;1.80;;;;;;;14.44;87.72;99277.33;105592;1256;74355;-23
2023/08/12 00:54:25;;;;;;;4.80;2.40;;;;;;;14.82;86.93;99277.33;105701;1256;71408;-24
2023/08/12 00:56:52;;;;;;;3.70;2.80;;;;;;;15.12;84.78;99277.56;105721;1252;60974;-23
2023/08/12 00:59:20;;;;;;;4.20;2.60;;;;;;;15.04;84.76;99282.52;105841;1256;61054;-24
2023/08/12 01:01:47;;;;;;;3.80;2.80;;;;;;;14.81;86.28;99282.15;105729;1251;73890;-23
2023/08/12 01:04:14;;;;;;;3.90;3.40;;;;;;;14.61;86.85;99280.37;105964;1255;73316;-23
2023/08/12 01:06:41;;;;;;;5.10;2.10;;;;;;;14.41;88.48;99278.70;105920;1253;71519;-23
2023/08/12 01:09:09;;;;;;;3.40;2.10;;;;;;;14.80;87.80;99279.23;105857;1253;61116;-23
2023/08/12 01:11:48;;;;;;;3.50;2.80;;;;;;;15.10;85.60;99276.00;106008;1251;61099;-24
2023/08/12 01:14:25;;;;;;;3.40;2.60;;;;;;;15.03;85.55;99279.33;105806;1254;73825;-23
2023/08/12 01:16:57;;;;;;;3.30;2.70;;;;;;;14.80;86.19;99277.13;105674;1254;74353;-23
2023/08/12 01:19:35;;;;;;;3.10;2.60;;;;;;;14.56;87.03;99279.70;105610;1254;73050;-23
2023/08/12 01:22:03;;;;;;;2.80;2.20;;;;;;;14.38;88.47;99276.69;105639;1254;61952;-23
2023/08/12 01:24:43;;;;;;;3.10;2.80;;;;;;;14.81;87.30;99272.11;105699;1259;61106;-23
2023/08/12 01:27:11;;;;;;;3.60;2.90;;;;;;;14.95;85.39;99273.23;105728;1254;73707;-23
2023/08/12 01:29:44;;;;;;;5.80;3.10;;;;;;;14.81;85.74;99274.94;105698;1251;74200;-23
2023/08/12 01:32:23;;;;;;;4.10;2.70;;;;;;;14.59;86.11;99277.86;105512;1259;72558;-23
2023/08/12 01:35:06;;;;;;;3.70;2.20;;;;;;;14.34;88.35;99272.10;105528;1258;61833;-23
2023/08/12 01:37:33;;;;;;;2.70;2.20;;;;;;;14.85;86.91;99267.23;105584;1258;61119;-24
2023/08/12 01:40:04;;;;;;;8.10;3.00;;;;;;;15.10;84.89;99268.52;105918;1252;73897;-23
2023/08/12 01:42:32;;;;;;;3.50;2.80;;;;;;;14.93;84.94;99266.31;105705;1251;74371;-23
2023/08/12 01:45:01;;;;;;;4.10;3.10;;;;;;;14.67;86.64;99268.70;105994;1251;72553;-23
2023/08/12 01:47:28;;;;;;;3.60;2.30;;;;;;;14.41;88.40;99272.17;105622;1251;61706;-23
2023/08/12 01:49:56;;;;;;;5.00;2.40;;;;;;;14.77;88.16;99272.55;105684;1259;61143;-24
2023/08/12 01:52:24;;;;;;;5.20;3.10;;;;;;;15.10;86.00;99270.05;105826;1251;74124;-23
2023/08/12 01:54:51;;;;;;;3.20;2.80;;;;;;;15.05;85.54;99272.34;105742;1256;74341;-23
2023/08/12 01:57:18;;;;;;;3.40;3.00;;;;;;;14.84;86.40;99269.80;105810;1256;72476;-23
2023/08/12 01:59:44;;;;;;;2.90;2.20;;;;;;;14.63;87.14;99275.73;105859;1251;61941;-23
2023/08/12 02:02:12;;;;;;;3.00;2.40;;;;;;;14.83;87.46;99276.20;105956;1257;61099;-23
2023/08/12 02:04:39;;;;;;;3.70;2.80;;;;;;;15.07;85.85;99274.74;105654;1251;73867;-23
2023/08/12 02:07:06;;;;;;;3.60;2.90;;;;;;;14.97;85.99;99270.62;105697;1251;73944;-23
2023/08/12 02:09:33;;;;;;;5.30;3.40;;;;;;;14.75;87.00;99273.23;105900;1251;72616;-23
2023/08/12 02:12:00;;;;;;;5.20;2.20;;;;;;;14.58;88.01;99276.20;105818;1254;61859;-23
2023/08/12 02:14:27;;;;;;;4.20;2.80;;;;;;;14.85;87.63;99276.45;105744;1260;61153;-23
2023/08/12 02:16:54;;;;;;;3.90;2.80;;;;;;;15.15;85.89;99274.00;105754;1251;73809;-23
2023/08/12 02:19:21;;;;;;;5.30;2.80;;;;;;;15.05;85.78;99277.04;105940;1252;74386;-23
2023/08/12 02:21:48;;;;;;;3.40;3.10;;;;;;;14.87;86.09;99273.11;105965;1251;72649;-23
2023/08/12 02:24:15;;;;;;;4.00;2.90;;;;;;;14.58;87.51;99272.73;105859;1251;61058;-23
2023/08/12 02:26:42;;;;;;;2.30;2.10;;;;;;;14.33;88.69;99271.33;105679;1257;61218;-23
2023/08/12 02:29:08;;;;;;;3.60;2.20;;;;;;;14.68;88.44;99271.03;105632;1254;73814;-23
2023/08/12 02:31:35;;;;;;;3.00;2.40;;;;;;;15.03;86.04;99270.57;105875;1255;74362;-24
2023/08/12 02:34:03;;;;;;;3.30;2.60;;;;;;;14.97;85.41;99271.25;105921;1251;72656;-23
2023/08/12 02:36:30;;;;;;;7.60;3.10;;;;;;;14.74;85.92;99267.85;105555;1254;61211;-23
2023/08/12 02:38:57;;;;;;;4.00;2.80;;;;;;;14.50;86.71;99269.48;105652;1251;61133;-23
2023/08/12 02:41:24;;;;;;;3.20;2.40;;;;;;;14.30;87.61;99269.49;105922;1251;72733;-23
2023/08/12 02:43:51;;;;;;;2.90;2.50;;;;;;;14.65;87.07;99271.89;105878;1251;74367;-22
2023/08/12 02:46:18;;;;;;;4.40;3.20;;;;;;;14.90;85.27;99269.55;105703;1251;72632;-24
2023/08/12 02:48:47;;;;;;;4.00;3.30;;;;;;;14.78;85.12;99274.73;105354;1251;61021;-23
2023/08/12 02:51:14;;;;;;;4.20;3.30;;;;;;;14.54;85.75;99275.58;105692;1258;61154;-23
2023/08/12 02:53:41;;;;;;;4.10;3.00;;;;;;;14.30;86.66;99278.30;105762;1251;74483;-23
2023/08/12 02:56:08;;;;;;;2.60;2.20;;;;;;;14.16;87.54;99283.10;105713;1257;74389;-22
2023/08/12 02:58:35;;;;;;;2.90;2.30;;;;;;;14.54;86.77;99277.48;105766;1254;72594;-23
2023/08/12 03:01:04;;;;;;;3.50;2.60;;;;;;;14.82;84.79;99279.19;105830;1256;61128;-23
2023/08/12 03:03:31;;;;;;;4.10;2.60;;;;;;;14.73;84.25;99277.23;105800;1256;61160;-23
2023/08/12 03:05:58;;;;;;;3.10;2.80;;;;;;;14.48;85.14;99273.96;105594;1254;73641;-22
2023/08/12 03:08:25;;;;;;;4.00;3.20;;;;;;;14.20;86.39;99275.04;105926;1251;74388;-23
2023/08/12 03:11:02;;;;;;;7.00;2.40;;;;;;;14.02;87.88;99275.98;105923;1255;72565;-24
2023/08/12 03:13:29;;;;;;;3.00;2.40;;;;;;;14.46;86.44;99275.55;105577;1254;61058;-24
2023/08/12 03:15:57;;;;;;;4.50;3.30;;;;;;;14.70;84.75;99274.73;105870;1251;61099;-24
2023/08/12 03:18:25;;;;;;;4.10;3.00;;;;;;;14.57;84.40;99272.14;105731;1257;72848;-23
2023/08/12 03:20:52;;;;;;;3.90;3.10;;;;;;;14.35;85.19;99269.89;105698;1251;73353;-24
2023/08/12 03:23:20;;;;;;;4.00;2.60;;;;;;;14.18;86.14;99267.69;105882;1257;72553;-24
2023/08/12 03:25:48;;;;;;;3.70;2.70;;;;;;;14.24;86.74;99270.45;105780;1251;61912;-24
2023/08/12 03:28:16;;;;;;;5.30;2.70;;;;;;;14.82;84.35;99266.98;105590;1257;61250;-24
2023/08/12 03:30:51;;;;;;;3.30;2.90;;;;;;;15.08;82.57;99271.15;105757;1251;73806;-24
2023/08/12 03:33:19;;;;;;;6.30;2.90;;;;;;;15.09;82.09;99270.52;105685;1251;73103;-24
2023/08/12 03:35:47;;;;;;;4.70;3.20;;;;;;;15.01;81.89;99267.41;105830;1251;71662;-24
2023/08/12 03:38:14;;;;;;;2.40;1.70;;;;;;;14.87;82.59;99269.14;105733;1259;61080;-24
2023/08/12 03:40:41;;;;;;;3.00;2.40;;;;;;;15.21;81.77;99264.65;105878;1260;61170;-24
2023/08/12 03:43:09;;;;;;;3.60;2.70;;;;;;;15.59;79.66;99263.10;105765;1251;73494;-24
2023/08/12 03:45:42;;;;;;;3.50;2.50;;;;;;;15.68;78.82;99262.11;105703;1251;74139;-24
2023/08/12 03:48:10;;;;;;;8.30;3.90;;;;;;;15.57;78.80;99263.39;105512;1254;72645;-24
2023/08/12 03:50:37;;;;;;;3.10;2.80;;;;;;;15.45;79.61;99265.31;105918;1251;61141;-24
2023/08/12 03:53:04;;;;;;;2.90;2.30;;;;;;;15.40;79.75;99263.73;105715;1256;61131;-24
2023/08/12 03:55:35;;;;;;;2.70;2.40;;;;;;;15.71;79.19;99261.35;105715;1254;73765;-24
2023/08/12 03:58:02;;;;;;;5.60;2.60;;;;;;;16.15;77.21;99262.45;105623;1251;73358;-24
2023/08/12 04:00:29;;;;;;;4.00;2.80;;;;;;;16.22;76.16;99268.23;105577;1254;72635;-24
2023/08/12 04:02:57;;;;;;;4.30;2.90;;;;;;;16.04;76.90;99269.97;105599;1254;61105;-24
2023/08/12 04:05:24;;;;;;;3.40;2.90;;;;;;;15.87;77.71;99275.52;105708;1257;61166;-24
2023/08/12 04:07:51;;;;;;;3.00;2.50;;;;;;;15.68;78.70;99278.09;105687;1251;73846;-24
2023/08/12 04:10:18;;;;;;;2.60;2.20;;;;;;;15.64;79.31;99277.24;105899;1251;74419;-24
2023/08/12 04:12:45;;;;;;;3.00;2.40;;;;;;;16.15;78.12;99273.76;105930;1251;72335;-24
2023/08/12 04:15:12;;;;;;;2.80;2.30;;;;;;;16.59;75.73;99276.67;105808;1255;61022;-24
2023/08/12 04:17:40;;;;;;;3.30;2.20;;;;;;;16.62;75.02;99271.67;105627;1257;61160;-23
2023/08/12 04:20:08;;;;;;;3.40;2.50;;;;;;;16.51;75.37;99273.45;105865;1251;73917;-24
2023/08/12 04:22:35;;;;;;;2.60;2.40;;;;;;;16.42;76.30;99278.46;105742;1256;74290;-24
2023/08/12 04:25:03;;;;;;;3.00;2.50;;;;;;;16.40;76.23;99286.48;105885;1251;72471;-24
2023/08/12 04:27:30;;;;;;;1.40;1.30;;;;;;;16.37;76.77;99287.73;105630;1252;61866;-24
2023/08/12 04:29:58;;;;;;;2.20;2.00;;;;;;;16.81;75.39;99286.38;105859;1256;61192;-24
2023/08/12 04:32:26;;;;;;;2.30;2.00;;;;;;;17.25;73.09;99282.02;105807;1257;73619;-25
2023/08/12 04:34:54;;;;;;;3.20;2.30;;;;;;;17.31;72.97;99281.60;105941;1257;74942;-24
2023/08/12 04:37:21;;;;;;;3.20;2.40;;;;;;;17.13;73.08;99279.59;105718;1252;72439;-24
2023/08/12 04:39:50;;;;;;;4.10;2.30;;;;;;;16.96;74.09;99281.34;105774;1256;61417;-24
2023/08/12 04:42:18;;;;;;;5.60;2.60;;;;;;;16.80;74.62;99281.53;105844;1256;61039;-24
2023/08/12 04:44:45;;;;;;;5.10;2.60;;;;;;;16.67;75.51;99280.30;105645;1251;73828;-23
2023/08/12 04:47:13;;;;;;;3.70;1.70;;;;;;;16.67;75.82;99279.20;105740;1251;74383;-24
2023/08/12 04:49:41;;;;;;;2.40;1.90;;;;;;;17.10;74.63;99281.95;105970;1251;70776;-24
2023/08/12 04:52:08;;;;;;;2.40;2.10;;;;;;;17.44;72.92;99277.23;105630;1254;61149;-24
2023/08/12 04:54:35;;;;;;;2.70;2.10;;;;;;;17.44;72.74;99277.21;105784;1256;61336;-24
2023/08/12 04:57:02;;;;;;;4.10;2.30;;;;;;;17.39;73.02;99278.58;105712;1251;73765;-23
2023/08/12 04:59:29;;;;;;;2.40;2.10;;;;;;;17.31;73.72;99278.92;105929;1257;74409;-24
2023/08/12 05:01:56;;;;;;;3.40;2.20;;;;;;;17.21;74.21;99279.24;105599;1254;72593;-24
2023/08/12 05:04:48;;;;;;;2.50;2.30;;;;;;;17.10;75.00;99281.27;105606;1251;61087;-24
2023/08/12 05:07:16;;;;;;;3.10;2.20;;;;;;;17.04;74.71;99278.39;105538;1251;61227;-23
2023/08/12 05:09:46;;;;;;;3.10;2.20;;;;;;;17.57;73.38;99279.55;105842;1251;73808;-23
2023/08/12 05:12:14;;;;;;;3.00;2.00;;;;;;;17.89;71.37;99280.07;105744;1258;74289;-24
2023/08/12 05:14:41;;;;;;;3.90;2.40;;;;;;;18.00;71.29;99279.49;105811;1253;72497;-24
2023/08/12 05:17:08;;;;;;;2.80;2.30;;;;;;;17.99;71.19;99280.48;105618;1254;61065;-24
2023/08/12 05:19:35;;;;;;;3.40;2.50;;;;;;;17.90;71.76;99282.46;105802;1256;61245;-24
2023/08/12 05:22:03;;;;;;;3.00;2.50;;;;;;;17.84;71.92;99282.05;105890;1251;72721;-24
2023/08/12 05:24:30;;;;;;;2.90;2.50;;;;;;;17.75;72.19;99283.04;105830;1251;74056;-24
2023/08/12 05:26:57;;;;;;;2.80;2.50;;;;;;;17.82;72.28;99283.33;105605;1251;72416;-24
2023/08/12 05:29:24;;;;;;;3.80;2.50;;;;;;;17.86;72.04;99284.15;105801;1251;61169;-24
2023/08/12 05:31:51;;;;;;;2.60;2.00;;;;;;;17.96;72.07;99282.34;105795;1255;61134;-24
2023/08/12 05:34:18;;;;;;;3.00;2.00;;;;;;;18.40;69.92;99280.88;105869;1251;73519;-23
2023/08/12 05:36:44;;;;;;;3.00;2.30;;;;;;;18.91;68.72;99280.79;105969;1251;74348;-24
2023/08/12 05:39:11;;;;;;;3.80;2.20;;;;;;;19.05;68.14;99283.11;105833;1251;72510;-22
2023/08/12 05:41:39;;;;;;;2.90;2.10;;;;;;;19.03;68.07;99288.02;105924;1251;61142;-23
2023/08/12 05:44:06;;;;;;;2.60;2.30;;;;;;;18.86;68.25;99289.59;105869;1257;61134;-24
2023/08/12 05:46:33;;;;;;;2.60;2.40;;;;;;;18.78;68.42;99288.86;105960;1251;73834;-24
2023/08/12 05:49:00;;;;;;;3.20;2.50;;;;;;;18.68;69.00;99289.11;105924;1251;74392;-24
2023/08/12 05:51:27;;;;;;;3.50;2.60;;;;;;;18.63;69.35;99286.29;105949;1251;72433;-24
2023/08/12 05:53:57;;;;;;;2.50;2.20;;;;;;;18.58;69.63;99290.36;105963;1251;61151;-24
2023/08/12 05:56:24;;;;;;;3.80;2.90;;;;;;;18.52;69.70;99285.08;105900;1256;61205;-24
2023/08/12 05:58:51;;;;;;;3.10;2.80;;;;;;;18.49;69.88;99289.95;105744;1251;73694;-24
2023/08/12 06:01:19;;;;;;;3.70;2.20;;;;;;;18.51;70.62;99287.99;105944;1252;74348;-24
2023/08/12 06:03:45;;;;;;;3.30;2.20;;;;;;;19.11;69.08;99290.27;105964;1251;72395;-24
2023/08/12 06:06:12;;;;;;;3.30;2.50;;;;;;;19.42;66.84;99288.73;105802;1251;61045;-25
2023/08/12 06:08:40;;;;;;;3.10;2.40;;;;;;;19.47;67.57;99288.21;105880;1257;61166;-24
2023/08/12 06:11:07;;;;;;;3.40;2.20;;;;;;;19.56;67.00;99287.00;105859;1256;73788;-24
2023/08/12 06:13:34;;;;;;;3.00;2.30;;;;;;;19.58;67.75;99282.15;105935;1257;74435;-24
2023/08/12 06:16:01;;;;;;;2.90;2.30;;;;;;;19.53;67.72;99286.25;105968;1255;72592;-24
2023/08/12 06:18:28;;;;;;;3.70;2.50;;;;;;;19.40;67.82;99288.94;105947;1251;61017;-24
2023/08/12 06:20:55;;;;;;;3.70;2.50;;;;;;;19.28;68.25;99287.88;105755;1257;61159;-24
2023/08/12 06:23:22;;;;;;;4.80;2.60;;;;;;;19.17;68.38;99279.77;105847;1251;72872;-24
2023/08/12 06:25:53;;;;;;;2.60;2.00;;;;;;;19.21;68.88;99280.73;105916;1257;74097;-23
2023/08/12 06:28:20;;;;;;;2.50;1.90;;;;;;;19.46;66.95;99276.25;105968;1251;72659;-24
2023/08/12 06:30:48;;;;;;;4.40;1.90;;;;;;;19.81;66.42;99273.73;105863;1257;61028;-24
2023/08/12 06:33:15;;;;;;;2.70;2.30;;;;;;;19.79;65.63;99272.83;105744;1257;61133;-23
2023/08/12 06:35:42;;;;;;;2.90;2.30;;;;;;;19.90;66.39;99271.06;105867;1251;73779;-24
2023/08/12 06:38:09;;;;;;;3.30;2.40;;;;;;;19.92;66.10;99271.54;105575;1255;74304;-24
2023/08/12 06:40:38;;;;;;;4.30;2.30;;;;;;;20.01;66.44;99274.00;105743;1257;72315;-24
2023/08/12 06:43:07;;;;;;;3.70;2.30;;;;;;;20.00;65.44;99275.89;105707;1251;61039;-23
2023/08/12 06:45:34;;;;;;;3.60;2.50;;;;;;;19.85;65.40;99274.98;105716;1256;61160;-23
2023/08/12 06:48:04;;;;;;;4.80;2.20;;;;;;;19.82;66.20;99272.73;105853;1251;73809;-23
2023/08/12 06:50:33;;;;;;;5.00;2.40;;;;;;;19.82;66.13;99264.48;105585;1251;74385;-24
2023/08/12 06:53:00;;;;;;;3.20;2.30;;;;;;;19.74;66.51;99261.08;105514;1257;72535;-23
2023/08/12 06:55:27;;;;;;;3.70;2.90;;;;;;;19.70;66.27;99259.80;105869;1251;61022;-23
2023/08/12 06:57:54;;;;;;;3.70;2.40;;;;;;;19.71;66.72;99257.91;105837;1256;61047;-23
2023/08/12 07:00:21;;;;;;;2.30;2.10;;;;;;;19.76;66.07;99258.06;105697;1251;73851;-25
2023/08/12 07:02:47;;;;;;;5.60;2.70;;;;;;;19.74;65.91;99257.98;105759;1251;75286;-23
2023/08/12 07:05:15;;;;;;;5.10;2.40;;;;;;;19.68;66.10;99263.95;105696;1251;72722;-23
2023/08/12 07:07:41;;;;;;;2.90;2.30;;;;;;;19.75;66.17;99264.11;105877;1257;61067;-23
2023/08/12 07:10:09;;;;;;;2.70;2.20;;;;;;;19.88;65.55;99265.61;105916;1256;61160;-23
2023/08/12 07:12:36;;;;;;;3.10;1.90;;;;;;;19.95;65.23;99267.59;105762;1251;73879;-23
2023/08/12 07:15:04;;;;;;;2.30;1.70;;;;;;;20.08;65.26;99259.98;105966;1255;74346;-23
2023/08/12 07:17:31;;;;;;;2.70;1.90;;;;;;;20.61;62.90;99256.08;105914;1251;71189;-23
2023/08/12 07:19:58;;;;;;;4.10;2.10;;;;;;;21.02;61.75;99259.42;105831;1254;61226;-23
2023/08/12 07:22:25;;;;;;;4.80;2.30;;;;;;;21.34;60.27;99258.49;105607;1257;61281;-24
2023/08/12 07:24:52;;;;;;;2.90;2.10;;;;;;;21.37;59.82;99261.12;105662;1251;73833;-23
2023/08/12 07:27:19;;;;;;;6.30;2.20;;;;;;;21.21;60.09;99259.55;105916;1256;74772;-24
2023/08/12 07:29:47;;;;;;;2.80;2.00;;;;;;;21.12;60.35;99257.27;105789;1251;73039;-23
2023/08/12 07:32:14;;;;;;;3.50;2.00;;;;;;;21.23;60.37;99257.82;105898;1251;61140;-23
2023/08/12 07:34:41;;;;;;;2.10;1.60;;;;;;;21.29;60.30;99256.29;105867;1257;61135;-23
2023/08/12 07:37:08;;;;;;;2.50;1.70;;;;;;;21.04;58.54;99252.18;105943;1251;73880;-23
2023/08/12 07:39:35;;;;;;;2.30;1.80;;;;;;;20.98;58.26;99254.94;105796;1251;74237;-23
2023/08/12 07:42:03;;;;;;;3.20;2.30;;;;;;;21.01;58.79;99254.56;105838;1254;72647;-24
2023/08/12 07:44:30;;;;;;;2.70;1.70;;;;;;;21.09;58.56;99256.99;105584;1252;61065;-23
2023/08/12 07:46:57;;;;;;;2.40;1.80;;;;;;;21.27;57.47;99252.85;105817;1257;61102;-23
2023/08/12 07:49:24;;;;;;;2.80;2.10;;;;;;;21.46;57.52;99245.88;105991;1252;73803;-23
2023/08/12 07:51:51;;;;;;;2.80;2.00;;;;;;;21.65;58.02;99245.89;105936;1257;74288;-23
2023/08/12 07:54:18;;;;;;;2.80;2.00;;;;;;;21.61;57.47;99248.73;105874;1251;72453;-22
2023/08/12 07:56:44;;;;;;;2.40;2.20;;;;;;;21.52;57.15;99243.80;105726;1257;61148;-23
2023/08/12 07:59:12;;;;;;;4.40;2.30;;;;;;;21.52;55.87;99245.52;105959;1255;61095;-23
2023/08/12 08:01:38;;;;;;;2.80;1.30;;;;;;;21.47;53.81;99243.45;105770;1256;73908;-22
2023/08/12 08:04:06;;;;;;;2.50;1.80;;;;;;;21.71;53.54;99246.38;105809;1256;74115;-23
2023/08/12 08:06:32;;;;;;;3.60;1.60;;;;;;;21.89;54.28;99247.80;105723;1251;72662;-23
2023/08/12 08:09:03;;;;;;;5.00;2.20;;;;;;;21.98;53.88;99245.95;105707;1251;61112;-23
2023/08/12 08:11:30;;;;;;;2.60;1.80;;;;;;;21.85;53.84;99241.30;103758;1254;61160;-23
2023/08/12 08:13:57;;;;;;;2.90;1.70;;;;;;;21.98;53.20;99238.60;105659;1260;61461;-23
2023/08/12 08:16:24;;;;;;;4.00;1.90;;;;;;;22.18;53.09;99236.63;105873;1252;61172;-23
2023/08/12 08:18:52;;;;;;;3.40;1.60;;;;;;;22.19;52.43;99238.45;105927;1252;61163;-23
2023/08/12 08:21:19;;;;;;;2.50;1.60;;;;;;;22.08;52.21;99238.45;105904;1251;61134;-23
2023/08/12 08:23:45;;;;;;;1.30;1.00;;;;;;;22.14;52.36;99235.51;105936;1256;61196;-23
2023/08/12 08:26:13;;;;;;;1.90;1.40;;;;;;;22.30;50.17;99234.56;105914;1251;73786;-23
2023/08/12 08:28:41;;;;;;;2.20;1.30;;;;;;;22.30;49.03;99233.79;105812;1256;73357;-23
2023/08/12 08:31:09;;;;;;;2.10;1.50;;;;;;;22.31;48.43;99229.76;105947;1251;73581;-23
2023/08/12 08:33:36;;;;;;;2.30;1.40;;;;;;;22.39;49.19;99227.14;105901;1251;61061;-23
2023/08/12 08:36:02;;;;;;;1.70;1.50;;;;;;;22.46;49.26;99225.17;105966;1257;61174;-23
2023/08/12 08:38:30;;;;;;;3.00;1.20;;;;;;;22.61;49.65;99218.13;105920;1252;73564;-23
2023/08/12 08:40:57;;;;;;;1.90;1.40;;;;;;;22.72;49.42;99213.78;105886;1251;74289;-23
2023/08/12 08:43:24;;;;;;;2.30;1.50;;;;;;;22.79;48.96;99219.64;105693;1251;72701;-23
2023/08/12 08:45:52;;;;;;;3.00;1.40;;;;;;;22.87;49.14;99215.01;105724;1251;61062;-23
2023/08/12 08:48:20;;;;;;;2.00;1.60;;;;;;;22.84;49.37;99214.35;105800;1252;61221;-23
2023/08/12 08:50:48;;;;;;;2.30;1.20;;;;;;;22.82;49.98;99212.30;105686;1251;73840;-23
2023/08/12 08:53:16;;;;;;;2.00;1.50;;;;;;;22.65;50.02;99209.52;105724;1259;74320;-23
2023/08/12 08:55:43;;;;;;;5.70;1.70;;;;;;;22.60;49.70;99214.25;105986;1254;72769;-23
2023/08/12 08:58:10;;;;;;;1.90;1.30;;;;;;;22.71;48.98;99209.79;105878;1257;61055;-23
2023/08/12 09:00:38;;;;;;;2.20;1.10;;;;;;;22.65;48.98;99206.02;106008;1251;61153;-23
2023/08/12 09:03:05;;;;;;;3.70;1.10;;;;;;;22.89;47.84;99202.48;105766;1251;73704;-23
2023/08/12 09:05:32;;;;;;;1.70;1.50;;;;;;;22.93;48.08;99210.48;105486;1260;74138;-23
2023/08/12 09:08:00;;;;;;;1.40;1.30;;;;;;;23.14;47.97;99208.63;105495;1257;72596;-23
2023/08/12 09:10:27;;;;;;;4.80;1.30;;;;;;;23.04;48.76;99198.08;105716;1257;61076;-23
2023/08/12 09:12:56;;;;;;;4.30;1.30;;;;;;;23.11;48.41;99198.52;105864;1253;61249;-23
2023/08/12 09:15:23;;;;;;;1.40;1.20;;;;;;;23.06;48.05;99202.09;105709;1260;72633;-23
2023/08/12 09:17:51;;;;;;;2.00;1.40;;;;;;;23.18;47.91;99203.03;105768;1260;74625;-24
2023/08/12 09:20:18;;;;;;;1.30;1.10;;;;;;;23.42;47.61;99205.99;105866;1251;72605;-23
2023/08/12 09:22:45;;;;;;;1.70;1.30;;;;;;;23.49;46.72;99205.85;105924;1251;61065;-23
2023/08/12 09:25:12;;;;;;;3.30;1.40;;;;;;;23.47;45.99;99194.30;105783;1256;61160;-23
2023/08/12 09:27:39;;;;;;;1.80;1.40;;;;;;;23.18;45.16;99203.80;105722;1257;73594;-23
2023/08/12 09:30:08;;;;;;;1.90;1.30;;;;;;;22.92;46.16;99213.46;105943;1251;74158;-23
2023/08/12 09:32:35;;;;;;;5.90;1.70;;;;;;;23.12;45.89;99216.34;105931;1257;72500;-23
2023/08/12 09:35:05;;;;;;;1.70;1.40;;;;;;;23.33;44.71;99209.30;105884;1251;61102;-23
2023/08/12 09:38:02;;;;;;;1.40;1.30;;;;;;;23.26;43.81;99211.39;102564;1291;600532;-22
2023/08/12 09:40:34;;;;;;;1.90;1.30;;;;;;;23.41;44.32;99214.37;104812;1267;61073;-22
2023/08/12 09:43:01;;;;;;;2.40;1.30;;;;;;;23.33;44.49;99218.14;104722;1265;61185;-22
2023/08/12 09:53:07;;;;;;;3.60;1.10;;;;;;;23.31;45.08;99207.20;102615;1292;600318;-22
2023/08/12 09:55:36;;;;;;;1.60;1.40;;;;;;;23.61;44.67;99206.59;104754;1272;61244;-22
2023/08/12 09:58:04;;;;;;;1.10;1.00;;;;;;;23.80;43.32;99203.73;104842;1271;61219;-22
2023/08/12 10:00:31;;;;;;;3.30;1.30;;;;;;;23.70;42.92;99211.96;104806;1271;72206;-22
2023/08/12 10:02:59;;;;;;;1.50;1.10;;;;;;;24.18;42.65;99206.96;104656;1272;73508;-22
2023/08/12 10:05:28;;;;;;;1.60;1.50;;;;;;;24.70;41.93;99203.20;104727;1269;71443;-22
2023/08/12 10:15:34;;;;;;;2.10;1.30;;;;;;;24.98;40.18;99197.75;102586;1293;600371;-22
2023/08/12 10:18:07;;;;;;;3.40;1.40;;;;;;;25.29;40.05;99200.23;104803;1266;61117;-22
2023/08/12 10:20:38;;;;;;;1.30;1.10;;;;;;;25.18;38.94;99197.48;104624;1266;61151;-22
2023/08/12 10:23:06;;;;;;;2.60;1.10;;;;;;;25.15;40.06;99184.34;104707;1267;71116;-22
2023/08/12 10:25:34;;;;;;;1.30;1.20;;;;;;;25.31;39.00;99191.13;104786;1272;74295;-22
2023/08/12 10:28:03;;;;;;;1.50;1.30;;;;;;;25.15;37.48;99185.45;102609;1270;2790497;-23
2023/08/12 10:30:31;;;;;;;4.10;1.20;;;;;;;25.14;37.19;99195.20;104873;1270;61123;-23
2023/08/12 10:40:41;;;;;;;3.00;1.20;;;;;;;25.22;38.97;99199.24;102664;1293;600206;-22
2023/08/12 10:43:09;;;;;;;1.30;1.20;;;;;;;25.22;39.67;99199.73;105036;1269;61183;-22
2023/08/12 10:45:43;;;;;;;2.20;1.20;;;;;;;25.34;39.58;99198.04;104827;1270;61011;-22
2023/08/12 10:48:24;;;;;;;2.90;1.40;;;;;;;25.46;38.16;99193.52;105019;1269;72157;-22
2023/08/12 10:50:58;;;;;;;3.40;2.10;;;;;;;25.76;37.89;99207.01;104841;1267;73282;-22
2023/08/12 10:53:31;;;;;;;3.00;1.30;;;;;;;25.92;37.34;99206.61;102821;1262;2678362;-22
2023/08/12 10:56:02;;;;;;;1.40;1.30;;;;;;;26.18;36.66;99208.02;104891;1264;61180;-22
2023/08/12 10:58:34;;;;;;;1.40;1.00;;;;;;;25.71;35.96;99199.98;104848;1264;61285;-22
2023/08/12 11:01:02;;;;;;;1.50;1.20;;;;;;;25.95;36.36;99209.04;104854;1271;72203;-22
2023/08/12 11:03:32;;;;;;;1.60;1.20;;;;;;;25.84;36.50;99198.45;105171;1264;73387;-22
2023/08/12 11:06:04;;;;;;;1.70;1.20;;;;;;;25.92;36.68;99201.68;105251;1261;72442;-22
2023/08/12 11:16:10;;;;;;;1.20;1.10;;;;;;;25.89;36.04;99209.13;102709;1295;600226;-22
2023/08/12 11:18:38;;;;;;;2.10;1.20;;;;;;;25.81;35.76;99206.51;104781;1269;61178;-23
2023/08/12 11:28:21;;;;;;;2.00;1.10;;;;;;;25.46;35.17;99209.39;102639;1292;600257;-22
2023/08/12 11:30:49;;;;;;;1.80;1.30;;;;;;;25.64;35.23;99210.66;104888;1266;61039;-22
2023/08/12 11:33:18;;;;;;;1.40;1.20;;;;;;;24.88;35.68;99201.66;104828;1270;61091;-23
2023/08/12 11:35:46;;;;;;;1.40;0.90;;;;;;;24.87;36.35;99209.88;104839;1271;71929;-22
2023/08/12 11:38:13;;;;;;;2.00;1.20;;;;;;;25.31;36.44;99207.95;104774;1266;74322;-22
2023/08/12 11:40:41;;;;;;;3.80;1.20;;;;;;;25.37;36.35;99206.92;104637;1272;71493;-22
2023/08/12 11:43:09;;;;;;;2.50;1.00;;;;;;;25.07;35.98;99213.59;103095;1268;2701796;-22
2023/08/12 11:45:38;;;;;;;1.90;1.20;;;;;;;25.17;35.02;99214.78;105044;1263;61167;-22
2023/08/12 11:48:06;;;;;;;1.20;1.00;;;;;;;25.09;35.08;99206.73;105042;1268;72244;-22
2023/08/12 11:50:34;;;;;;;2.50;1.20;;;;;;;24.91;35.21;99207.10;104957;1262;74314;-22
2023/08/12 12:00:49;;;;;;;1.50;0.90;;;;;;;24.11;36.16;99208.21;102701;1292;599519;-22
2023/08/12 12:03:17;;;;;;;1.70;1.20;;;;;;;24.00;36.14;99202.05;104922;1269;61165;-23
2023/08/12 12:13:25;;;;;;;1.20;0.80;;;;;;;24.03;36.03;99202.44;102767;1294;600291;-22
2023/08/12 12:15:53;;;;;;;1.80;1.10;;;;;;;24.26;34.67;99198.38;105083;1264;61030;-23
2023/08/12 12:18:21;;;;;;;3.20;1.10;;;;;;;24.36;34.03;99194.39;104862;1264;61238;-23
2023/08/12 12:20:58;;;;;;;2.80;1.20;;;;;;;24.45;35.30;99200.46;104842;1264;71348;-23